sensor_id;sensor_type;location;lat;lon;timestamp;P1;durP1;ratioP1;P2;durP2;ratioP2
33830;SDS011;20137;48.834;8.732;2024-03-17T00:00:45;14.20;;;8.73;;
33830;SDS011;20137;48.834;8.732;2024-03-17T00:03:10;15.40;;;8.55;;
33830;SDS011;20137;48.834;8.732;2024-03-17T00:05:42;14.35;;;7.85;;
33830;SDS011;20137;48.834;8.732;2024-03-17T00:08:07;13.88;;;8.10;;
33830;SDS011;20137;48.834;8.732;2024-03-17T00:10:33;15.13;;;8.80;;
33830;SDS011;20137;48.834;8.732;2024-03-17T00:12:59;12.60;;;7.57;;
33830;SDS011;20137;48.834;8.732;2024-03-17T00:15:26;12.98;;;7.10;;
33830;SDS011;20137;48.834;8.732;2024-03-17T00:17:52;14.90;;;7.90;;
33830;SDS011;20137;48.834;8.732;2024-03-17T00:20:17;14.50;;;7.68;;
33830;SDS011;20137;48.834;8.732;2024-03-17T00:22:47;11.77;;;7.28;;
33830;SDS011;20137;48.834;8.732;2024-03-17T00:25:13;14.23;;;8.20;;
33830;SDS011;20137;48.834;8.732;2024-03-17T00:27:39;17.38;;;8.02;;
33830;SDS011;20137;48.834;8.732;2024-03-17T00:30:08;14.32;;;7.75;;
33830;SDS011;20137;48.834;8.732;2024-03-17T00:32:37;15.35;;;8.55;;
33830;SDS011;20137;48.834;8.732;2024-03-17T00:35:09;21.88;;;10.55;;
33830;SDS011;20137;48.834;8.732;2024-03-17T00:37:39;19.40;;;10.48;;
33830;SDS011;20137;48.834;8.732;2024-03-17T00:40:05;25.52;;;10.93;;
33830;SDS011;20137;48.834;8.732;2024-03-17T00:42:31;21.48;;;11.15;;
33830;SDS011;20137;48.834;8.732;2024-03-17T00:44:57;21.00;;;12.18;;
33830;SDS011;20137;48.834;8.732;2024-03-17T00:47:25;19.60;;;10.90;;
33830;SDS011;20137;48.834;8.732;2024-03-17T00:49:51;19.52;;;10.40;;
33830;SDS011;20137;48.834;8.732;2024-03-17T00:52:16;20.17;;;11.23;;
33830;SDS011;20137;48.834;8.732;2024-03-17T00:54:42;22.67;;;11.82;;
33830;SDS011;20137;48.834;8.732;2024-03-17T00:57:08;23.30;;;11.05;;
33830;SDS011;20137;48.834;8.732;2024-03-17T00:59:34;20.63;;;11.70;;
33830;SDS011;20137;48.834;8.732;2024-03-17T01:02:00;20.67;;;10.68;;
33830;SDS011;20137;48.834;8.732;2024-03-17T01:04:25;22.38;;;10.85;;
33830;SDS011;20137;48.834;8.732;2024-03-17T01:06:51;19.90;;;9.95;;
33830;SDS011;20137;48.834;8.732;2024-03-17T01:09:16;14.73;;;9.55;;
33830;SDS011;20137;48.834;8.732;2024-03-17T01:11:42;19.80;;;10.15;;
33830;SDS011;20137;48.834;8.732;2024-03-17T01:14:08;13.82;;;8.85;;
33830;SDS011;20137;48.834;8.732;2024-03-17T01:16:34;15.73;;;8.98;;
33830;SDS011;20137;48.834;8.732;2024-03-17T01:19:00;17.80;;;9.77;;
33830;SDS011;20137;48.834;8.732;2024-03-17T01:21:25;16.80;;;8.95;;
33830;SDS011;20137;48.834;8.732;2024-03-17T01:23:51;16.45;;;9.80;;
33830;SDS011;20137;48.834;8.732;2024-03-17T01:26:18;14.80;;;9.27;;
33830;SDS011;20137;48.834;8.732;2024-03-17T01:28:43;18.52;;;9.80;;
33830;SDS011;20137;48.834;8.732;2024-03-17T01:31:09;13.95;;;9.75;;
33830;SDS011;20137;48.834;8.732;2024-03-17T01:33:35;16.95;;;9.50;;
33830;SDS011;20137;48.834;8.732;2024-03-17T01:36:00;13.70;;;8.63;;
33830;SDS011;20137;48.834;8.732;2024-03-17T01:38:26;15.77;;;9.80;;
33830;SDS011;20137;48.834;8.732;2024-03-17T01:40:51;16.20;;;9.35;;
33830;SDS011;20137;48.834;8.732;2024-03-17T01:43:17;15.98;;;9.48;;
33830;SDS011;20137;48.834;8.732;2024-03-17T01:45:43;19.20;;;9.57;;
33830;SDS011;20137;48.834;8.732;2024-03-17T01:48:11;19.52;;;11.05;;
33830;SDS011;20137;48.834;8.732;2024-03-17T01:50:44;22.05;;;11.82;;
33830;SDS011;20137;48.834;8.732;2024-03-17T01:53:13;21.35;;;11.45;;
33830;SDS011;20137;48.834;8.732;2024-03-17T01:55:42;20.48;;;10.80;;
33830;SDS011;20137;48.834;8.732;2024-03-17T01:58:09;20.63;;;10.82;;
33830;SDS011;20137;48.834;8.732;2024-03-17T02:00:38;21.13;;;12.15;;
33830;SDS011;20137;48.834;8.732;2024-03-17T02:03:05;22.30;;;11.77;;
33830;SDS011;20137;48.834;8.732;2024-03-17T02:05:33;24.25;;;11.38;;
33830;SDS011;20137;48.834;8.732;2024-03-17T02:07:59;19.50;;;11.23;;
33830;SDS011;20137;48.834;8.732;2024-03-17T02:10:26;23.70;;;13.10;;
33830;SDS011;20137;48.834;8.732;2024-03-17T02:12:52;21.73;;;12.57;;
33830;SDS011;20137;48.834;8.732;2024-03-17T02:15:18;23.17;;;13.02;;
33830;SDS011;20137;48.834;8.732;2024-03-17T02:17:44;24.50;;;13.48;;
33830;SDS011;20137;48.834;8.732;2024-03-17T02:20:10;23.58;;;13.00;;
33830;SDS011;20137;48.834;8.732;2024-03-17T02:22:36;24.20;;;12.85;;
33830;SDS011;20137;48.834;8.732;2024-03-17T02:25:02;22.55;;;12.80;;
33830;SDS011;20137;48.834;8.732;2024-03-17T02:27:29;24.58;;;13.68;;
33830;SDS011;20137;48.834;8.732;2024-03-17T02:29:55;22.83;;;12.63;;
33830;SDS011;20137;48.834;8.732;2024-03-17T02:32:20;22.00;;;12.32;;
33830;SDS011;20137;48.834;8.732;2024-03-17T02:34:47;19.08;;;11.45;;
33830;SDS011;20137;48.834;8.732;2024-03-17T02:37:13;22.65;;;11.95;;
33830;SDS011;20137;48.834;8.732;2024-03-17T02:39:39;22.50;;;12.52;;
33830;SDS011;20137;48.834;8.732;2024-03-17T02:42:08;26.73;;;12.45;;
33830;SDS011;20137;48.834;8.732;2024-03-17T02:44:35;21.77;;;11.93;;
33830;SDS011;20137;48.834;8.732;2024-03-17T02:47:03;20.70;;;11.48;;
33830;SDS011;20137;48.834;8.732;2024-03-17T02:49:30;24.77;;;12.00;;
33830;SDS011;20137;48.834;8.732;2024-03-17T02:52:04;23.67;;;12.10;;
33830;SDS011;20137;48.834;8.732;2024-03-17T02:54:38;23.45;;;12.30;;
33830;SDS011;20137;48.834;8.732;2024-03-17T02:57:05;19.77;;;11.20;;
33830;SDS011;20137;48.834;8.732;2024-03-17T02:59:34;21.35;;;11.48;;
33830;SDS011;20137;48.834;8.732;2024-03-17T03:02:00;22.52;;;13.18;;
33830;SDS011;20137;48.834;8.732;2024-03-17T03:04:26;23.60;;;11.55;;
33830;SDS011;20137;48.834;8.732;2024-03-17T03:06:52;18.52;;;11.02;;
33830;SDS011;20137;48.834;8.732;2024-03-17T03:09:18;27.02;;;12.63;;
33830;SDS011;20137;48.834;8.732;2024-03-17T03:11:50;21.48;;;12.43;;
33830;SDS011;20137;48.834;8.732;2024-03-17T03:14:17;23.02;;;12.02;;
33830;SDS011;20137;48.834;8.732;2024-03-17T03:16:42;24.92;;;11.98;;
33830;SDS011;20137;48.834;8.732;2024-03-17T03:19:09;23.20;;;12.40;;
33830;SDS011;20137;48.834;8.732;2024-03-17T03:21:34;25.42;;;12.70;;
33830;SDS011;20137;48.834;8.732;2024-03-17T03:24:00;26.08;;;13.20;;
33830;SDS011;20137;48.834;8.732;2024-03-17T03:26:26;22.70;;;12.88;;
33830;SDS011;20137;48.834;8.732;2024-03-17T03:28:53;27.67;;;13.80;;
33830;SDS011;20137;48.834;8.732;2024-03-17T03:31:20;27.10;;;13.68;;
33830;SDS011;20137;48.834;8.732;2024-03-17T03:33:46;26.27;;;13.20;;
33830;SDS011;20137;48.834;8.732;2024-03-17T03:36:13;28.90;;;14.43;;
33830;SDS011;20137;48.834;8.732;2024-03-17T03:38:40;26.33;;;15.55;;
33830;SDS011;20137;48.834;8.732;2024-03-17T03:41:09;30.23;;;17.45;;
33830;SDS011;20137;48.834;8.732;2024-03-17T03:43:36;37.58;;;20.23;;
33830;SDS011;20137;48.834;8.732;2024-03-17T03:46:02;45.20;;;23.55;;
33830;SDS011;20137;48.834;8.732;2024-03-17T03:48:29;49.75;;;26.50;;
33830;SDS011;20137;48.834;8.732;2024-03-17T03:50:57;54.78;;;29.65;;
33830;SDS011;20137;48.834;8.732;2024-03-17T03:53:23;52.15;;;29.30;;
33830;SDS011;20137;48.834;8.732;2024-03-17T03:55:49;51.33;;;28.73;;
33830;SDS011;20137;48.834;8.732;2024-03-17T03:58:15;52.58;;;26.85;;
33830;SDS011;20137;48.834;8.732;2024-03-17T04:00:41;47.42;;;25.65;;
33830;SDS011;20137;48.834;8.732;2024-03-17T04:03:10;38.28;;;22.65;;
33830;SDS011;20137;48.834;8.732;2024-03-17T04:05:36;41.35;;;20.48;;
33830;SDS011;20137;48.834;8.732;2024-03-17T04:08:02;34.63;;;19.73;;
33830;SDS011;20137;48.834;8.732;2024-03-17T04:10:28;29.20;;;17.35;;
33830;SDS011;20137;48.834;8.732;2024-03-17T04:12:53;34.47;;;16.42;;
33830;SDS011;20137;48.834;8.732;2024-03-17T04:15:19;26.30;;;14.80;;
33830;SDS011;20137;48.834;8.732;2024-03-17T04:17:45;27.15;;;14.60;;
33830;SDS011;20137;48.834;8.732;2024-03-17T04:20:11;27.20;;;14.23;;
33830;SDS011;20137;48.834;8.732;2024-03-17T04:22:39;24.20;;;14.18;;
33830;SDS011;20137;48.834;8.732;2024-03-17T04:25:05;22.65;;;13.23;;
33830;SDS011;20137;48.834;8.732;2024-03-17T04:27:34;21.08;;;12.52;;
33830;SDS011;20137;48.834;8.732;2024-03-17T04:30:00;22.75;;;12.95;;
33830;SDS011;20137;48.834;8.732;2024-03-17T04:32:27;24.95;;;12.82;;
33830;SDS011;20137;48.834;8.732;2024-03-17T04:34:52;21.83;;;12.18;;
33830;SDS011;20137;48.834;8.732;2024-03-17T04:37:18;22.45;;;12.13;;
33830;SDS011;20137;48.834;8.732;2024-03-17T04:39:45;20.88;;;11.65;;
33830;SDS011;20137;48.834;8.732;2024-03-17T04:42:11;20.20;;;12.07;;
33830;SDS011;20137;48.834;8.732;2024-03-17T04:44:39;19.13;;;11.52;;
33830;SDS011;20137;48.834;8.732;2024-03-17T04:47:08;21.40;;;10.70;;
33830;SDS011;20137;48.834;8.732;2024-03-17T04:49:38;21.15;;;12.05;;
33830;SDS011;20137;48.834;8.732;2024-03-17T04:52:04;21.35;;;11.88;;
33830;SDS011;20137;48.834;8.732;2024-03-17T04:54:31;21.73;;;12.63;;
33830;SDS011;20137;48.834;8.732;2024-03-17T04:56:57;18.08;;;11.55;;
33830;SDS011;20137;48.834;8.732;2024-03-17T04:59:23;24.05;;;13.00;;
33830;SDS011;20137;48.834;8.732;2024-03-17T05:01:49;24.67;;;12.30;;
33830;SDS011;20137;48.834;8.732;2024-03-17T05:04:15;20.20;;;11.75;;
33830;SDS011;20137;48.834;8.732;2024-03-17T05:06:41;21.33;;;11.77;;
33830;SDS011;20137;48.834;8.732;2024-03-17T05:09:11;18.05;;;10.85;;
33830;SDS011;20137;48.834;8.732;2024-03-17T05:11:40;17.83;;;10.60;;
33830;SDS011;20137;48.834;8.732;2024-03-17T05:14:06;17.42;;;10.77;;
33830;SDS011;20137;48.834;8.732;2024-03-17T05:16:32;19.73;;;10.55;;
33830;SDS011;20137;48.834;8.732;2024-03-17T05:18:58;17.83;;;10.73;;
33830;SDS011;20137;48.834;8.732;2024-03-17T05:21:26;21.92;;;10.45;;
33830;SDS011;20137;48.834;8.732;2024-03-17T05:23:55;20.23;;;11.18;;
33830;SDS011;20137;48.834;8.732;2024-03-17T05:26:22;19.13;;;10.50;;
33830;SDS011;20137;48.834;8.732;2024-03-17T05:28:49;20.08;;;10.32;;
33830;SDS011;20137;48.834;8.732;2024-03-17T05:31:15;22.38;;;10.13;;
33830;SDS011;20137;48.834;8.732;2024-03-17T05:33:42;19.33;;;10.70;;
33830;SDS011;20137;48.834;8.732;2024-03-17T05:36:08;17.35;;;10.30;;
33830;SDS011;20137;48.834;8.732;2024-03-17T05:38:34;17.08;;;10.52;;
33830;SDS011;20137;48.834;8.732;2024-03-17T05:41:00;18.08;;;9.70;;
33830;SDS011;20137;48.834;8.732;2024-03-17T05:43:37;17.38;;;10.10;;
33830;SDS011;20137;48.834;8.732;2024-03-17T05:46:04;18.92;;;10.43;;
33830;SDS011;20137;48.834;8.732;2024-03-17T05:48:31;18.75;;;10.50;;
33830;SDS011;20137;48.834;8.732;2024-03-17T05:51:00;22.67;;;10.82;;
33830;SDS011;20137;48.834;8.732;2024-03-17T05:53:27;25.00;;;11.70;;
33830;SDS011;20137;48.834;8.732;2024-03-17T05:55:53;25.98;;;12.20;;
33830;SDS011;20137;48.834;8.732;2024-03-17T05:58:20;16.95;;;9.57;;
33830;SDS011;20137;48.834;8.732;2024-03-17T06:00:45;19.95;;;10.77;;
33830;SDS011;20137;48.834;8.732;2024-03-17T06:03:11;17.90;;;10.07;;
33830;SDS011;20137;48.834;8.732;2024-03-17T06:05:39;20.90;;;10.82;;
33830;SDS011;20137;48.834;8.732;2024-03-17T06:08:08;17.05;;;10.50;;
33830;SDS011;20137;48.834;8.732;2024-03-17T06:10:35;15.32;;;9.13;;
33830;SDS011;20137;48.834;8.732;2024-03-17T06:13:02;15.98;;;8.27;;
33830;SDS011;20137;48.834;8.732;2024-03-17T06:15:28;15.80;;;8.90;;
33830;SDS011;20137;48.834;8.732;2024-03-17T06:17:54;16.83;;;8.90;;
33830;SDS011;20137;48.834;8.732;2024-03-17T06:20:20;17.33;;;8.93;;
33830;SDS011;20137;48.834;8.732;2024-03-17T06:22:48;18.42;;;10.15;;
33830;SDS011;20137;48.834;8.732;2024-03-17T06:25:16;16.67;;;9.05;;
33830;SDS011;20137;48.834;8.732;2024-03-17T06:27:42;16.13;;;9.35;;
33830;SDS011;20137;48.834;8.732;2024-03-17T06:30:14;16.83;;;8.45;;
33830;SDS011;20137;48.834;8.732;2024-03-17T06:32:41;14.65;;;7.25;;
33830;SDS011;20137;48.834;8.732;2024-03-17T06:35:07;17.83;;;7.85;;
33830;SDS011;20137;48.834;8.732;2024-03-17T06:37:34;16.17;;;8.07;;
33830;SDS011;20137;48.834;8.732;2024-03-17T06:40:01;12.48;;;7.97;;
33830;SDS011;20137;48.834;8.732;2024-03-17T06:42:28;12.05;;;7.60;;
33830;SDS011;20137;48.834;8.732;2024-03-17T06:44:55;14.25;;;7.88;;
33830;SDS011;20137;48.834;8.732;2024-03-17T06:47:20;10.82;;;7.57;;
33830;SDS011;20137;48.834;8.732;2024-03-17T06:49:46;10.35;;;6.78;;
33830;SDS011;20137;48.834;8.732;2024-03-17T06:52:11;9.48;;;6.68;;
33830;SDS011;20137;48.834;8.732;2024-03-17T06:54:37;14.07;;;6.50;;
33830;SDS011;20137;48.834;8.732;2024-03-17T06:57:03;11.00;;;5.60;;
33830;SDS011;20137;48.834;8.732;2024-03-17T06:59:32;10.40;;;6.50;;
33830;SDS011;20137;48.834;8.732;2024-03-17T07:01:58;9.68;;;5.80;;
33830;SDS011;20137;48.834;8.732;2024-03-17T07:04:24;10.57;;;6.10;;
33830;SDS011;20137;48.834;8.732;2024-03-17T07:06:49;8.68;;;5.90;;
33830;SDS011;20137;48.834;8.732;2024-03-17T07:09:15;9.43;;;5.75;;
33830;SDS011;20137;48.834;8.732;2024-03-17T07:11:42;8.00;;;5.28;;
33830;SDS011;20137;48.834;8.732;2024-03-17T07:14:09;8.23;;;5.35;;
33830;SDS011;20137;48.834;8.732;2024-03-17T07:16:35;10.15;;;5.32;;
33830;SDS011;20137;48.834;8.732;2024-03-17T07:19:03;9.27;;;5.97;;
33830;SDS011;20137;48.834;8.732;2024-03-17T07:21:30;9.80;;;6.43;;
33830;SDS011;20137;48.834;8.732;2024-03-17T07:23:56;11.10;;;6.13;;
33830;SDS011;20137;48.834;8.732;2024-03-17T07:26:24;9.45;;;5.25;;
33830;SDS011;20137;48.834;8.732;2024-03-17T07:28:50;8.05;;;5.13;;
33830;SDS011;20137;48.834;8.732;2024-03-17T07:31:16;8.23;;;5.38;;
33830;SDS011;20137;48.834;8.732;2024-03-17T07:33:41;8.18;;;4.95;;
33830;SDS011;20137;48.834;8.732;2024-03-17T07:36:07;6.78;;;4.55;;
33830;SDS011;20137;48.834;8.732;2024-03-17T07:38:35;8.25;;;5.43;;
33830;SDS011;20137;48.834;8.732;2024-03-17T07:41:04;7.80;;;5.20;;
33830;SDS011;20137;48.834;8.732;2024-03-17T07:43:30;8.57;;;5.05;;
33830;SDS011;20137;48.834;8.732;2024-03-17T07:48:27;6.72;;;3.95;;
33830;SDS011;20137;48.834;8.732;2024-03-17T07:51:03;7.63;;;5.25;;
33830;SDS011;20137;48.834;8.732;2024-03-17T07:53:31;10.68;;;5.60;;
33830;SDS011;20137;48.834;8.732;2024-03-17T07:56:04;9.85;;;5.05;;
33830;SDS011;20137;48.834;8.732;2024-03-17T07:58:39;7.93;;;4.75;;
33830;SDS011;20137;48.834;8.732;2024-03-17T08:01:12;9.45;;;5.65;;
33830;SDS011;20137;48.834;8.732;2024-03-17T08:03:39;8.38;;;4.50;;
33830;SDS011;20137;48.834;8.732;2024-03-17T08:06:06;7.57;;;4.93;;
33830;SDS011;20137;48.834;8.732;2024-03-17T08:08:33;10.32;;;5.90;;
33830;SDS011;20137;48.834;8.732;2024-03-17T08:10:59;9.93;;;6.05;;
33830;SDS011;20137;48.834;8.732;2024-03-17T08:13:28;10.23;;;5.75;;
33830;SDS011;20137;48.834;8.732;2024-03-17T08:15:59;8.18;;;5.47;;
33830;SDS011;20137;48.834;8.732;2024-03-17T08:18:30;7.40;;;5.28;;
33830;SDS011;20137;48.834;8.732;2024-03-17T08:20:57;9.30;;;5.78;;
33830;SDS011;20137;48.834;8.732;2024-03-17T08:23:23;8.95;;;5.95;;
33830;SDS011;20137;48.834;8.732;2024-03-17T08:26:06;24.05;;;13.23;;
33830;SDS011;20137;48.834;8.732;2024-03-17T08:28:33;15.00;;;8.07;;
33830;SDS011;20137;48.834;8.732;2024-03-17T08:31:00;10.20;;;6.50;;
33830;SDS011;20137;48.834;8.732;2024-03-17T08:33:27;8.52;;;5.63;;
33830;SDS011;20137;48.834;8.732;2024-03-17T08:38:26;7.60;;;5.57;;
33830;SDS011;20137;48.834;8.732;2024-03-17T08:40:53;9.70;;;6.65;;
33830;SDS011;20137;48.834;8.732;2024-03-17T08:43:20;8.85;;;6.25;;
33830;SDS011;20137;48.834;8.732;2024-03-17T08:45:56;8.98;;;5.97;;
33830;SDS011;20137;48.834;8.732;2024-03-17T08:48:25;6.70;;;5.47;;
33830;SDS011;20137;48.834;8.732;2024-03-17T08:50:52;9.75;;;5.57;;
33830;SDS011;20137;48.834;8.732;2024-03-17T08:53:22;9.15;;;5.05;;
33830;SDS011;20137;48.834;8.732;2024-03-17T08:55:48;7.10;;;5.47;;
33830;SDS011;20137;48.834;8.732;2024-03-17T08:58:14;9.70;;;6.15;;
33830;SDS011;20137;48.834;8.732;2024-03-17T09:00:40;8.38;;;5.85;;
33830;SDS011;20137;48.834;8.732;2024-03-17T09:03:06;9.10;;;6.03;;
33830;SDS011;20137;48.834;8.732;2024-03-17T09:05:38;8.15;;;5.85;;
33830;SDS011;20137;48.834;8.732;2024-03-17T09:08:08;10.18;;;6.00;;
33830;SDS011;20137;48.834;8.732;2024-03-17T09:10:41;7.57;;;5.28;;
33830;SDS011;20137;48.834;8.732;2024-03-17T09:13:15;7.22;;;4.30;;
33830;SDS011;20137;48.834;8.732;2024-03-17T09:15:52;6.18;;;4.07;;
33830;SDS011;20137;48.834;8.732;2024-03-17T09:18:19;7.03;;;4.30;;
33830;SDS011;20137;48.834;8.732;2024-03-17T09:20:45;6.90;;;4.07;;
33830;SDS011;20137;48.834;8.732;2024-03-17T09:23:11;6.22;;;3.83;;
33830;SDS011;20137;48.834;8.732;2024-03-17T09:25:37;9.93;;;4.78;;
33830;SDS011;20137;48.834;8.732;2024-03-17T09:28:03;6.28;;;3.90;;
33830;SDS011;20137;48.834;8.732;2024-03-17T09:30:29;5.97;;;4.00;;
33830;SDS011;20137;48.834;8.732;2024-03-17T09:32:54;7.40;;;4.38;;
33830;SDS011;20137;48.834;8.732;2024-03-17T09:35:20;6.43;;;4.57;;
33830;SDS011;20137;48.834;8.732;2024-03-17T09:37:46;6.28;;;4.13;;
33830;SDS011;20137;48.834;8.732;2024-03-17T09:40:14;6.63;;;4.53;;
33830;SDS011;20137;48.834;8.732;2024-03-17T09:42:40;6.28;;;4.40;;
33830;SDS011;20137;48.834;8.732;2024-03-17T09:45:08;9.77;;;4.55;;
33830;SDS011;20137;48.834;8.732;2024-03-17T09:47:35;6.18;;;4.32;;
33830;SDS011;20137;48.834;8.732;2024-03-17T09:50:01;7.82;;;4.53;;
33830;SDS011;20137;48.834;8.732;2024-03-17T09:52:27;6.07;;;4.15;;
33830;SDS011;20137;48.834;8.732;2024-03-17T09:55:08;8.25;;;4.22;;
33830;SDS011;20137;48.834;8.732;2024-03-17T09:57:38;6.57;;;4.53;;
33830;SDS011;20137;48.834;8.732;2024-03-17T10:00:13;8.70;;;4.35;;
33830;SDS011;20137;48.834;8.732;2024-03-17T10:02:43;7.50;;;4.55;;
33830;SDS011;20137;48.834;8.732;2024-03-17T10:05:22;7.63;;;5.18;;
33830;SDS011;20137;48.834;8.732;2024-03-17T10:07:49;5.90;;;3.78;;
33830;SDS011;20137;48.834;8.732;2024-03-17T10:10:16;7.15;;;4.15;;
33830;SDS011;20137;48.834;8.732;2024-03-17T10:12:43;7.45;;;4.90;;
33830;SDS011;20137;48.834;8.732;2024-03-17T10:15:14;6.13;;;3.97;;
33830;SDS011;20137;48.834;8.732;2024-03-17T10:17:39;7.18;;;4.35;;
33830;SDS011;20137;48.834;8.732;2024-03-17T10:20:12;8.90;;;4.63;;
33830;SDS011;20137;48.834;8.732;2024-03-17T10:23:09;8.60;;;4.38;;
33830;SDS011;20137;48.834;8.732;2024-03-17T10:25:39;5.72;;;4.10;;
33830;SDS011;20137;48.834;8.732;2024-03-17T10:28:11;5.38;;;3.90;;
33830;SDS011;20137;48.834;8.732;2024-03-17T10:30:38;6.38;;;3.80;;
33830;SDS011;20137;48.834;8.732;2024-03-17T10:33:05;6.22;;;3.67;;
33830;SDS011;20137;48.834;8.732;2024-03-17T10:35:37;7.20;;;3.28;;
33830;SDS011;20137;48.834;8.732;2024-03-17T10:38:08;7.20;;;2.97;;
33830;SDS011;20137;48.834;8.732;2024-03-17T10:40:34;5.40;;;2.67;;
33830;SDS011;20137;48.834;8.732;2024-03-17T10:43:03;5.75;;;2.58;;
33830;SDS011;20137;48.834;8.732;2024-03-17T10:45:29;4.78;;;2.60;;
33830;SDS011;20137;48.834;8.732;2024-03-17T10:48:00;4.88;;;2.60;;
33830;SDS011;20137;48.834;8.732;2024-03-17T10:50:29;6.38;;;2.53;;
33830;SDS011;20137;48.834;8.732;2024-03-17T10:52:58;9.10;;;3.30;;
33830;SDS011;20137;48.834;8.732;2024-03-17T10:55:39;4.50;;;2.15;;
33830;SDS011;20137;48.834;8.732;2024-03-17T10:58:32;5.55;;;2.38;;
33830;SDS011;20137;48.834;8.732;2024-03-17T11:01:01;3.85;;;2.10;;
33830;SDS011;20137;48.834;8.732;2024-03-17T11:03:32;3.70;;;2.10;;
33830;SDS011;20137;48.834;8.732;2024-03-17T11:05:59;3.03;;;1.92;;
33830;SDS011;20137;48.834;8.732;2024-03-17T11:08:29;2.92;;;1.80;;
33830;SDS011;20137;48.834;8.732;2024-03-17T11:10:57;4.82;;;1.80;;
33830;SDS011;20137;48.834;8.732;2024-03-17T11:13:27;4.32;;;1.70;;
33830;SDS011;20137;48.834;8.732;2024-03-17T11:15:54;6.22;;;2.60;;
33830;SDS011;20137;48.834;8.732;2024-03-17T11:23:30;4.15;;;1.90;;
33830;SDS011;20137;48.834;8.732;2024-03-17T11:25:57;4.55;;;1.70;;
33830;SDS011;20137;48.834;8.732;2024-03-17T11:34:07;5.50;;;1.70;;
33830;SDS011;20137;48.834;8.732;2024-03-17T11:36:52;4.73;;;1.73;;
33830;SDS011;20137;48.834;8.732;2024-03-17T11:39:19;6.57;;;2.15;;
33830;SDS011;20137;48.834;8.732;2024-03-17T11:41:53;4.18;;;2.00;;
33830;SDS011;20137;48.834;8.732;2024-03-17T11:49:23;4.55;;;1.92;;
33830;SDS011;20137;48.834;8.732;2024-03-17T11:52:02;2.00;;;1.40;;
33830;SDS011;20137;48.834;8.732;2024-03-17T11:54:30;4.05;;;1.60;;
33830;SDS011;20137;48.834;8.732;2024-03-17T11:57:00;4.25;;;2.20;;
33830;SDS011;20137;48.834;8.732;2024-03-17T11:59:37;9.75;;;5.95;;
33830;SDS011;20137;48.834;8.732;2024-03-17T12:02:10;5.35;;;2.60;;
33830;SDS011;20137;48.834;8.732;2024-03-17T12:04:43;5.15;;;2.72;;
33830;SDS011;20137;48.834;8.732;2024-03-17T12:07:13;5.40;;;2.38;;
33830;SDS011;20137;48.834;8.732;2024-03-17T12:09:43;6.43;;;2.67;;
33830;SDS011;20137;48.834;8.732;2024-03-17T12:14:45;6.28;;;3.90;;
33830;SDS011;20137;48.834;8.732;2024-03-17T12:17:11;6.72;;;3.05;;
33830;SDS011;20137;48.834;8.732;2024-03-17T12:19:44;4.65;;;3.60;;
33830;SDS011;20137;48.834;8.732;2024-03-17T12:22:14;6.05;;;3.30;;
33830;SDS011;20137;48.834;8.732;2024-03-17T12:24:47;6.43;;;3.50;;
33830;SDS011;20137;48.834;8.732;2024-03-17T12:27:18;6.88;;;3.35;;
33830;SDS011;20137;48.834;8.732;2024-03-17T12:29:46;5.38;;;3.58;;
33830;SDS011;20137;48.834;8.732;2024-03-17T12:32:13;4.70;;;3.30;;
33830;SDS011;20137;48.834;8.732;2024-03-17T12:34:41;4.68;;;2.90;;
33830;SDS011;20137;48.834;8.732;2024-03-17T12:37:18;6.55;;;3.88;;
33830;SDS011;20137;48.834;8.732;2024-03-17T12:39:45;7.10;;;3.70;;
33830;SDS011;20137;48.834;8.732;2024-03-17T12:42:15;4.57;;;3.60;;
33830;SDS011;20137;48.834;8.732;2024-03-17T12:44:55;10.13;;;4.60;;
33830;SDS011;20137;48.834;8.732;2024-03-17T12:47:22;8.10;;;4.15;;
33830;SDS011;20137;48.834;8.732;2024-03-17T12:49:55;5.35;;;3.25;;
33830;SDS011;20137;48.834;8.732;2024-03-17T12:57:45;10.23;;;3.55;;
33830;SDS011;20137;48.834;8.732;2024-03-17T13:00:29;6.47;;;3.47;;
33830;SDS011;20137;48.834;8.732;2024-03-17T13:03:02;8.73;;;3.92;;
33830;SDS011;20137;48.834;8.732;2024-03-17T13:05:29;7.90;;;4.13;;
33830;SDS011;20137;48.834;8.732;2024-03-17T13:07:56;5.35;;;3.70;;
33830;SDS011;20137;48.834;8.732;2024-03-17T13:10:23;5.07;;;3.22;;
33830;SDS011;20137;48.834;8.732;2024-03-17T13:12:58;5.03;;;3.10;;
33830;SDS011;20137;48.834;8.732;2024-03-17T13:15:26;5.55;;;3.25;;
33830;SDS011;20137;48.834;8.732;2024-03-17T13:17:53;6.55;;;3.85;;
33830;SDS011;20137;48.834;8.732;2024-03-17T13:20:19;6.82;;;3.67;;
33830;SDS011;20137;48.834;8.732;2024-03-17T13:22:45;7.03;;;3.28;;
33830;SDS011;20137;48.834;8.732;2024-03-17T13:25:15;6.20;;;3.05;;
33830;SDS011;20137;48.834;8.732;2024-03-17T13:27:42;5.60;;;3.70;;
33830;SDS011;20137;48.834;8.732;2024-03-17T13:30:09;5.90;;;3.38;;
33830;SDS011;20137;48.834;8.732;2024-03-17T13:32:36;5.85;;;3.45;;
33830;SDS011;20137;48.834;8.732;2024-03-17T13:35:02;5.03;;;3.53;;
33830;SDS011;20137;48.834;8.732;2024-03-17T13:37:28;8.27;;;3.22;;
33830;SDS011;20137;48.834;8.732;2024-03-17T13:39:53;6.57;;;3.50;;
33830;SDS011;20137;48.834;8.732;2024-03-17T13:42:19;7.13;;;3.67;;
33830;SDS011;20137;48.834;8.732;2024-03-17T13:44:45;5.85;;;3.55;;
33830;SDS011;20137;48.834;8.732;2024-03-17T13:47:11;4.13;;;2.83;;
33830;SDS011;20137;48.834;8.732;2024-03-17T13:49:39;5.07;;;2.60;;
33830;SDS011;20137;48.834;8.732;2024-03-17T13:52:05;5.18;;;3.15;;
33830;SDS011;20137;48.834;8.732;2024-03-17T13:54:30;5.78;;;3.28;;
33830;SDS011;20137;48.834;8.732;2024-03-17T13:56:57;4.75;;;3.22;;
33830;SDS011;20137;48.834;8.732;2024-03-17T13:59:23;6.80;;;3.15;;
33830;SDS011;20137;48.834;8.732;2024-03-17T14:01:52;7.43;;;3.25;;
33830;SDS011;20137;48.834;8.732;2024-03-17T14:04:17;5.95;;;2.45;;
33830;SDS011;20137;48.834;8.732;2024-03-17T14:06:44;5.20;;;3.03;;
33830;SDS011;20137;48.834;8.732;2024-03-17T14:09:11;5.70;;;3.25;;
33830;SDS011;20137;48.834;8.732;2024-03-17T14:11:37;5.40;;;2.92;;
33830;SDS011;20137;48.834;8.732;2024-03-17T14:14:04;4.55;;;2.85;;
33830;SDS011;20137;48.834;8.732;2024-03-17T14:16:30;5.90;;;3.03;;
33830;SDS011;20137;48.834;8.732;2024-03-17T14:18:59;4.68;;;2.40;;
33830;SDS011;20137;48.834;8.732;2024-03-17T14:21:28;7.47;;;4.38;;
33830;SDS011;20137;48.834;8.732;2024-03-17T14:23:54;6.25;;;2.40;;
33830;SDS011;20137;48.834;8.732;2024-03-17T14:26:21;4.22;;;2.78;;
33830;SDS011;20137;48.834;8.732;2024-03-17T14:28:49;5.07;;;3.10;;
33830;SDS011;20137;48.834;8.732;2024-03-17T14:31:16;6.95;;;3.10;;
33830;SDS011;20137;48.834;8.732;2024-03-17T14:33:42;4.20;;;2.92;;
33830;SDS011;20137;48.834;8.732;2024-03-17T14:36:08;4.45;;;2.70;;
33830;SDS011;20137;48.834;8.732;2024-03-17T14:38:35;3.20;;;2.45;;
33830;SDS011;20137;48.834;8.732;2024-03-17T14:41:00;6.80;;;3.42;;
33830;SDS011;20137;48.834;8.732;2024-03-17T14:43:27;4.38;;;2.72;;
33830;SDS011;20137;48.834;8.732;2024-03-17T14:45:52;5.35;;;3.08;;
33830;SDS011;20137;48.834;8.732;2024-03-17T14:48:19;4.00;;;2.80;;
33830;SDS011;20137;48.834;8.732;2024-03-17T14:50:45;4.45;;;2.63;;
33830;SDS011;20137;48.834;8.732;2024-03-17T14:53:10;4.22;;;2.75;;
33830;SDS011;20137;48.834;8.732;2024-03-17T14:55:36;4.70;;;2.70;;
33830;SDS011;20137;48.834;8.732;2024-03-17T14:58:02;4.72;;;2.97;;
33830;SDS011;20137;48.834;8.732;2024-03-17T15:00:28;7.00;;;3.40;;
33830;SDS011;20137;48.834;8.732;2024-03-17T15:02:55;6.55;;;3.05;;
33830;SDS011;20137;48.834;8.732;2024-03-17T15:05:21;4.85;;;2.88;;
33830;SDS011;20137;48.834;8.732;2024-03-17T15:07:48;4.88;;;2.63;;